Time;durP1;ratioP1;P1;durP2;ratioP2;P2;SDS_P1;SDS_P2;PMS_P1;PMS_P2;Temp;Humidity;BMP_temperature;BMP_pressure;BME280_temperature;BME280_humidity;BME280_pressure;Samples;Min_cycle;Max_cycle;Signal;HPM_P1;HPM_P2
2023/11/10 00:00:53;;;;;;;3.47;3.17;;;;;;;9.92;64.90;94177.81;6163935;23;20179;-83
2023/11/10 00:03:19;;;;;;;3.60;3.07;;;;;;;9.91;64.75;94188.31;6163171;23;20189;-82
2023/11/10 00:05:46;;;;;;;3.27;2.93;;;;;;;9.92;65.15;94192.44;6163198;23;20195;-84
2023/11/10 00:08:14;;;;;;;4.00;3.10;;;;;;;9.99;64.83;94188.84;6163858;23;20181;-84
2023/11/10 00:10:41;;;;;;;4.23;3.10;;;;;;;10.02;64.69;94175.56;6164166;23;20179;-83
2023/11/10 00:13:08;;;;;;;3.43;3.10;;;;;;;9.95;64.86;94176.63;6162755;23;20238;-83
2023/11/10 00:15:35;;;;;;;4.90;3.30;;;;;;;9.96;65.13;94181.56;6163051;23;20230;-83
2023/11/10 00:18:01;;;;;;;4.10;3.30;;;;;;;9.92;65.06;94166.75;6163262;23;20179;-82
2023/11/10 00:20:28;;;;;;;3.83;3.23;;;;;;;9.89;64.73;94162.00;6162352;23;20183;-83
2023/11/10 00:22:54;;;;;;;3.30;3.00;;;;;;;9.84;65.00;94161.84;6163031;23;20179;-84
2023/11/10 00:25:22;;;;;;;4.50;3.40;;;;;;;9.66;65.71;94188.22;6161607;23;20266;-83
2023/11/10 00:27:48;;;;;;;4.20;3.43;;;;;;;9.51;66.63;94201.34;6162901;23;20179;-83
2023/11/10 00:30:17;;;;;;;5.83;3.50;;;;;;;9.44;67.15;94215.97;6162578;23;20179;-83
2023/11/10 00:32:43;;;;;;;4.50;3.17;;;;;;;9.41;67.34;94223.31;6162659;23;20494;-84
2023/11/10 00:35:10;;;;;;;3.77;3.33;;;;;;;9.42;67.37;94228.25;6161316;23;20208;-83
2023/11/10 00:37:37;;;;;;;3.43;3.13;;;;;;;9.42;67.31;94232.59;6162213;23;20215;-84
2023/11/10 00:40:04;;;;;;;3.03;2.73;;;;;;;9.40;67.04;94214.03;6162711;23;20550;-83
2023/11/10 00:42:31;;;;;;;4.13;3.07;;;;;;;9.31;67.58;94221.94;6162138;23;20663;-83
2023/11/10 00:44:58;;;;;;;4.57;2.90;;;;;;;9.24;67.76;94226.31;6163604;23;20246;-82
2023/11/10 00:47:24;;;;;;;4.50;2.73;;;;;;;9.20;67.90;94239.75;6163206;23;20186;-83
2023/11/10 00:49:51;;;;;;;7.43;2.57;;;;;;;9.20;67.81;94229.50;6162692;23;20542;-83
2023/11/10 00:52:18;;;;;;;3.87;2.50;;;;;;;9.16;67.76;94218.81;6161414;23;20563;-83
2023/11/10 00:54:46;;;;;;;2.70;2.50;;;;;;;9.16;67.42;94210.34;6162529;23;20203;-84
2023/11/10 00:57:12;;;;;;;2.97;2.67;;;;;;;9.21;67.71;94215.66;6162633;23;20179;-83
2023/11/10 00:59:40;;;;;;;3.37;2.40;;;;;;;9.27;67.65;94200.22;6163045;23;20179;-84
2023/11/10 01:02:06;;;;;;;3.57;2.50;;;;;;;9.27;67.30;94189.94;6163029;23;20182;-82
2023/11/10 01:04:33;;;;;;;2.80;2.47;;;;;;;9.29;67.28;94187.19;6161972;23;20195;-83
2023/11/10 01:06:59;;;;;;;3.73;2.53;;;;;;;9.24;67.29;94176.72;6162265;23;20201;-83
2023/11/10 01:09:25;;;;;;;2.87;2.67;;;;;;;9.16;67.68;94184.66;6163044;23;20175;-83
2023/11/10 01:11:52;;;;;;;3.37;2.90;;;;;;;9.06;68.24;94207.38;6163134;23;20178;-83
2023/11/10 01:14:20;;;;;;;4.67;2.80;;;;;;;9.00;67.85;94203.84;6162359;23;20203;-83
2023/11/10 01:16:48;;;;;;;2.77;2.30;;;;;;;8.95;68.16;94201.88;6163124;23;20179;-82
2023/11/10 01:19:15;;;;;;;4.17;2.50;;;;;;;8.84;68.62;94206.84;6161935;23;20185;-84
2023/11/10 01:21:41;;;;;;;2.60;2.40;;;;;;;8.86;68.69;94202.28;6163409;23;20185;-83
2023/11/10 01:24:08;;;;;;;2.90;2.47;;;;;;;8.82;68.97;94193.44;6161149;23;20171;-84
2023/11/10 01:26:34;;;;;;;3.13;2.80;;;;;;;8.76;69.04;94204.47;6162202;23;20186;-83
2023/11/10 01:29:01;;;;;;;2.83;2.60;;;;;;;8.75;68.87;94206.25;6163085;23;20206;-82
2023/11/10 01:31:27;;;;;;;2.63;2.43;;;;;;;8.76;68.83;94192.44;6162864;23;20169;-84
2023/11/10 01:33:55;;;;;;;2.93;2.67;;;;;;;8.83;68.09;94171.91;6162448;23;20185;-83
2023/11/10 01:36:22;;;;;;;3.10;2.40;;;;;;;8.82;67.69;94158.28;6163263;23;20179;-83
2023/11/10 01:38:49;;;;;;;2.83;2.57;;;;;;;8.85;67.85;94141.72;6163577;23;20201;-83
2023/11/10 01:41:15;;;;;;;2.60;2.40;;;;;;;8.85;67.73;94134.78;6163971;23;20179;-83
2023/11/10 01:43:42;;;;;;;3.37;2.60;;;;;;;8.81;67.91;94123.34;6163952;23;20203;-83
2023/11/10 01:46:35;;;;;;;4.10;2.70;;;;;;;8.80;67.82;94133.81;6163969;23;20250;-82
2023/11/10 01:49:04;;;;;;;3.73;2.60;;;;;;;8.81;67.81;94128.47;6163695;23;20189;-83
2023/11/10 01:51:31;;;;;;;2.97;2.77;;;;;;;8.75;67.84;94119.00;6163050;23;20179;-83
2023/11/10 01:53:58;;;;;;;2.73;2.47;;;;;;;8.62;68.04;94114.72;6162766;23;20186;-83
2023/11/10 01:56:25;;;;;;;2.87;2.40;;;;;;;8.46;68.71;94129.72;6162527;23;20639;-83
2023/11/10 01:58:52;;;;;;;3.83;2.73;;;;;;;8.42;68.50;94134.47;6162216;23;20185;-83
2023/11/10 02:01:19;;;;;;;3.40;3.10;;;;;;;8.53;68.24;94108.19;6162731;23;20179;-82
2023/11/10 02:03:45;;;;;;;2.93;2.63;;;;;;;8.52;68.20;94101.50;6163102;23;20178;-83
2023/11/10 02:06:13;;;;;;;2.90;2.47;;;;;;;8.54;67.54;94068.75;6163361;23;20194;-83
2023/11/10 02:08:40;;;;;;;2.80;2.60;;;;;;;8.51;66.96;94047.84;6162704;23;20186;-83
2023/11/10 02:11:06;;;;;;;3.10;2.80;;;;;;;8.55;66.31;94024.16;6162205;23;20422;-83
2023/11/10 02:13:33;;;;;;;2.67;2.47;;;;;;;8.58;66.62;94028.88;6163185;23;20186;-83
2023/11/10 02:15:59;;;;;;;3.27;2.80;;;;;;;8.57;65.47;93988.03;6162982;23;20281;-82
2023/11/10 02:18:25;;;;;;;3.03;2.73;;;;;;;8.61;65.61;93989.22;6161222;23;20667;-84
2023/11/10 02:20:52;;;;;;;3.23;2.53;;;;;;;8.65;65.35;93987.81;6161769;23;20183;-83
2023/11/10 02:23:23;;;;;;;3.00;2.70;;;;;;;8.69;64.91;93959.97;6160641;23;20186;-83
2023/11/10 02:25:53;;;;;;;3.13;2.70;;;;;;;8.70;64.74;93941.00;6161914;23;20517;-83
2023/11/10 02:28:19;;;;;;;2.70;2.50;;;;;;;8.66;64.86;93945.75;6160633;23;20209;-83
2023/11/10 02:30:46;;;;;;;2.50;2.30;;;;;;;8.73;64.47;93941.41;6161226;23;20182;-81
2023/11/10 02:33:12;;;;;;;2.90;2.70;;;;;;;8.76;64.27;93937.63;6160852;23;20191;-84
2023/11/10 02:35:39;;;;;;;2.70;2.50;;;;;;;8.78;64.21;93908.22;6161517;23;20199;-83
2023/11/10 02:38:08;;;;;;;3.33;2.60;;;;;;;8.81;63.66;93899.31;6161519;23;20179;-82
2023/11/10 02:40:34;;;;;;;2.73;2.53;;;;;;;8.90;63.52;93896.28;6160850;23;20182;-82
2023/11/10 02:43:02;;;;;;;2.60;2.40;;;;;;;8.92;63.07;93868.63;6161739;23;20183;-83
2023/11/10 02:45:28;;;;;;;2.77;2.57;;;;;;;8.99;62.98;93863.47;6162239;23;20195;-82
2023/11/10 02:47:55;;;;;;;2.73;2.50;;;;;;;8.97;62.81;93838.00;6164802;23;20189;-83
2023/11/10 02:50:21;;;;;;;2.73;2.40;;;;;;;9.02;62.82;93837.38;6163975;23;20179;-82
2023/11/10 02:52:48;;;;;;;3.30;2.17;;;;;;;9.06;62.50;93838.53;6163287;23;20183;-83
2023/11/10 02:55:14;;;;;;;2.40;2.20;;;;;;;9.03;62.83;93844.09;6163901;23;20203;-83
2023/11/10 02:57:40;;;;;;;3.33;2.63;;;;;;;9.04;62.56;93839.75;6163024;23;20243;-82
2023/11/10 03:00:10;;;;;;;2.90;2.60;;;;;;;9.03;63.12;93845.88;6163111;23;20178;-83
2023/11/10 03:02:36;;;;;;;2.87;2.27;;;;;;;9.04;62.81;93842.31;6163124;23;20179;-83
2023/11/10 03:05:03;;;;;;;3.10;2.50;;;;;;;9.10;62.51;93826.84;6163594;23;20202;-83
2023/11/10 03:07:30;;;;;;;3.50;2.40;;;;;;;9.12;62.32;93799.19;6163215;23;20233;-82
2023/11/10 03:09:58;;;;;;;2.70;2.50;;;;;;;9.09;61.78;93784.19;6163976;23;20179;-83
2023/11/10 03:12:24;;;;;;;4.23;2.50;;;;;;;9.06;61.95;93786.41;6163833;23;20179;-83
2023/11/10 03:14:51;;;;;;;2.30;2.10;;;;;;;9.04;61.82;93789.19;6163220;23;20210;-83
2023/11/10 03:17:19;;;;;;;2.60;2.40;;;;;;;9.07;61.96;93782.84;6162546;23;20212;-83
2023/11/10 03:19:45;;;;;;;2.63;2.37;;;;;;;9.11;61.96;93795.03;6163447;23;20179;-84
2023/11/10 03:22:11;;;;;;;2.73;2.30;;;;;;;9.07;61.96;93782.84;6165080;23;20181;-83
2023/11/10 03:24:38;;;;;;;2.57;2.27;;;;;;;9.13;62.11;93792.25;6168502;23;20198;-82
2023/11/10 03:27:05;;;;;;;2.00;1.90;;;;;;;9.16;62.10;93782.38;6169434;23;20179;-84
2023/11/10 03:29:31;;;;;;;3.27;2.10;;;;;;;9.19;61.83;93769.09;6169909;23;20178;-82
2023/11/10 03:31:58;;;;;;;3.00;2.27;;;;;;;9.15;62.14;93780.78;6168293;23;20179;-84
2023/11/10 03:34:26;;;;;;;2.53;2.33;;;;;;;9.15;62.37;93801.34;6168574;23;20199;-83
2023/11/10 03:36:54;;;;;;;2.50;2.30;;;;;;;9.20;62.25;93818.69;6167957;23;20847;-83
2023/11/10 03:39:20;;;;;;;6.97;2.20;;;;;;;9.12;62.44;93824.06;6168051;23;20187;-83
2023/11/10 03:41:48;;;;;;;3.23;2.10;;;;;;;8.98;63.36;93867.81;6167595;23;20225;-84
2023/11/10 03:44:14;;;;;;;2.50;2.30;;;;;;;8.99;63.30;93871.16;6167973;23;20203;-82
2023/11/10 03:46:40;;;;;;;2.33;2.10;;;;;;;8.95;63.26;93882.84;6167451;23;20183;-83
2023/11/10 03:49:07;;;;;;;2.63;2.40;;;;;;;8.92;63.69;93884.03;6167143;23;20178;-83
2023/11/10 03:51:35;;;;;;;2.40;2.20;;;;;;;8.88;63.57;93893.13;6166862;23;20178;-84
2023/11/10 03:54:02;;;;;;;2.47;2.27;;;;;;;8.83;64.32;93913.53;6166034;23;20194;-83
2023/11/10 03:56:29;;;;;;;2.50;2.30;;;;;;;8.82;63.94;93919.66;6167147;23;20194;-83
2023/11/10 03:58:56;;;;;;;2.73;2.13;;;;;;;8.80;64.15;93941.38;6167086;23;20187;-82
2023/11/10 04:01:22;;;;;;;2.50;2.30;;;;;;;8.80;64.21;93928.53;6165939;23;20190;-82
2023/11/10 04:03:48;;;;;;;2.20;2.00;;;;;;;8.81;63.92;93923.19;6165259;23;20182;-82
2023/11/10 04:06:15;;;;;;;3.03;1.93;;;;;;;8.76;63.93;93919.69;6164739;23;20194;-83
2023/11/10 04:08:43;;;;;;;2.33;2.13;;;;;;;8.79;63.70;93921.84;6165060;23;20178;-84
2023/11/10 04:11:09;;;;;;;2.93;2.10;;;;;;;8.77;63.58;93901.50;6165376;23;20179;-82
2023/11/10 04:13:36;;;;;;;2.80;2.00;;;;;;;8.77;63.74;93898.94;6164589;23;20234;-84
2023/11/10 04:16:02;;;;;;;2.53;2.10;;;;;;;8.73;64.02;93908.03;6163459;23;20202;-84
2023/11/10 04:18:28;;;;;;;2.37;2.17;;;;;;;8.70;64.40;93923.84;6163058;23;20579;-83
2023/11/10 04:20:56;;;;;;;2.40;2.20;;;;;;;8.77;64.17;93921.25;6163072;23;20179;-83
2023/11/10 04:23:22;;;;;;;2.10;1.90;;;;;;;8.65;64.59;93937.31;6164402;23;20175;-82
2023/11/10 04:25:50;;;;;;;2.80;2.10;;;;;;;8.68;64.49;93930.94;6163945;23;20197;-82
2023/11/10 04:28:17;;;;;;;2.63;1.90;;;;;;;8.69;64.73;93939.44;6162823;23;20190;-83
2023/11/10 04:30:44;;;;;;;2.10;1.90;;;;;;;8.66;64.87;93950.88;6162637;23;20185;-82
2023/11/10 04:33:10;;;;;;;2.07;1.93;;;;;;;8.70;64.68;93946.13;6162183;23;20186;-83
2023/11/10 04:35:36;;;;;;;2.80;2.10;;;;;;;8.61;65.26;93950.72;6162569;23;20199;-82
2023/11/10 04:38:04;;;;;;;2.10;1.90;;;;;;;8.56;65.42;93964.16;6161363;23;20189;-84
2023/11/10 04:40:30;;;;;;;2.37;2.10;;;;;;;8.48;66.34;93986.66;6162139;23;20198;-84
2023/11/10 04:42:58;;;;;;;2.50;2.00;;;;;;;8.32;67.08;94027.16;6162903;23;20179;-82
2023/11/10 04:45:26;;;;;;;3.33;2.27;;;;;;;8.42;66.73;94020.84;6162840;23;20191;-84
2023/11/10 04:47:53;;;;;;;2.17;1.97;;;;;;;8.41;67.13;94012.34;6164030;23;20175;-83
2023/11/10 04:50:19;;;;;;;2.23;2.03;;;;;;;8.47;67.21;94015.88;6163608;23;20213;-82
2023/11/10 04:52:47;;;;;;;2.63;2.43;;;;;;;8.48;67.43;94030.28;6159367;23;20210;-83
2023/11/10 04:55:13;;;;;;;2.30;1.93;;;;;;;8.56;66.78;94020.59;6161940;23;20226;-83
2023/11/10 04:57:39;;;;;;;3.03;2.00;;;;;;;8.57;66.94;94031.66;6160811;23;20179;-83
2023/11/10 05:00:09;;;;;;;2.60;2.07;;;;;;;8.60;66.98;94029.47;6159389;23;20655;-82
2023/11/10 05:02:35;;;;;;;2.97;2.40;;;;;;;8.69;66.47;94012.06;6157615;23;20186;-82
2023/11/10 05:05:02;;;;;;;2.67;2.20;;;;;;;8.74;66.38;94011.44;6158992;23;20195;-83
2023/11/10 05:07:28;;;;;;;2.10;2.00;;;;;;;8.77;66.30;94001.56;6158099;23;20178;-83
2023/11/10 05:09:55;;;;;;;3.33;2.23;;;;;;;8.80;66.21;94000.38;6158031;23;20179;-83
2023/11/10 05:12:22;;;;;;;2.27;2.00;;;;;;;8.82;66.13;94006.88;6161184;23;20261;-84
2023/11/10 05:14:48;;;;;;;2.43;1.90;;;;;;;8.83;66.19;94011.03;6159675;23;20202;-83
2023/11/10 05:17:16;;;;;;;2.97;1.80;;;;;;;8.83;66.32;94012.81;6157832;23;20302;-82
2023/11/10 05:19:43;;;;;;;3.03;2.00;;;;;;;8.84;65.95;94006.69;6154088;23;20227;-82
2023/11/10 05:22:09;;;;;;;2.43;2.07;;;;;;;8.85;66.14;94003.13;6153595;23;20179;-83
2023/11/10 05:24:36;;;;;;;2.77;2.20;;;;;;;8.85;65.87;94000.56;6152810;23;20230;-83
2023/11/10 05:27:02;;;;;;;3.07;1.90;;;;;;;8.82;65.92;94004.31;6153969;23;20175;-83
2023/11/10 05:29:29;;;;;;;2.10;2.00;;;;;;;8.76;66.03;94009.47;6153284;23;20713;-82
2023/11/10 05:31:57;;;;;;;2.23;2.03;;;;;;;8.76;66.45;94012.03;6154601;23;20186;-83
2023/11/10 05:34:25;;;;;;;1.93;1.83;;;;;;;8.71;66.43;94019.56;6154252;23;20569;-83
2023/11/10 05:36:51;;;;;;;2.53;1.93;;;;;;;8.70;66.51;94017.97;6154151;23;20205;-82
2023/11/10 05:39:17;;;;;;;2.87;1.90;;;;;;;8.74;65.97;94017.38;6154943;23;20185;-83
2023/11/10 05:41:44;;;;;;;2.70;1.80;;;;;;;8.79;66.00;94014.19;6154537;23;20179;-83
2023/11/10 05:44:11;;;;;;;2.00;1.80;;;;;;;8.85;65.96;94018.53;6154438;23;20213;-82
2023/11/10 05:46:38;;;;;;;1.97;1.77;;;;;;;8.90;65.81;94011.78;6153942;23;20174;-82
2023/11/10 05:49:05;;;;;;;1.80;1.60;;;;;;;8.90;65.77;94006.63;6151802;23;20178;-83
2023/11/10 05:51:33;;;;;;;2.83;2.00;;;;;;;8.90;65.53;94008.41;6154558;23;20179;-82
2023/11/10 05:54:00;;;;;;;2.60;1.90;;;;;;;8.89;65.77;94010.19;6153380;23;20195;-82
2023/11/10 05:56:26;;;;;;;2.33;1.70;;;;;;;8.95;65.40;94011.94;6153299;23;20534;-83
2023/11/10 05:58:53;;;;;;;4.43;2.10;;;;;;;8.97;65.66;94012.53;6154991;23;20213;-84
2023/11/10 06:01:23;;;;;;;4.10;2.10;;;;;;;8.99;65.66;94014.91;6154587;23;20178;-84
2023/11/10 06:03:50;;;;;;;3.83;2.03;;;;;;;9.04;65.53;94019.44;6153599;23;20682;-83
2023/11/10 06:06:16;;;;;;;2.13;1.77;;;;;;;9.03;65.63;94021.22;6153226;23;20225;-83
2023/11/10 06:08:44;;;;;;;1.90;1.80;;;;;;;8.99;65.41;94009.78;6154657;23;20186;-83
2023/11/10 06:11:20;;;;;;;3.07;1.97;;;;;;;9.11;71.14;94221.19;6155881;23;20566;-83
2023/11/10 06:13:46;;;;;;;2.47;2.07;;;;;;;9.29;68.07;94107.56;6154962;23;20170;-83
2023/11/10 06:16:13;;;;;;;2.90;2.20;;;;;;;9.29;66.10;94022.81;6154572;23;20203;-82
2023/11/10 06:18:39;;;;;;;4.07;2.27;;;;;;;9.25;65.98;94017.31;6154273;23;20202;-83
2023/11/10 06:21:06;;;;;;;2.80;2.07;;;;;;;9.22;66.09;94015.19;6154133;23;20534;-83
2023/11/10 06:23:33;;;;;;;2.17;1.90;;;;;;;9.20;65.97;94014.59;6150826;23;20183;-82
2023/11/10 06:26:01;;;;;;;2.20;2.00;;;;;;;9.20;65.99;94024.88;6153372;23;20198;-82
2023/11/10 06:28:27;;;;;;;2.80;2.17;;;;;;;9.17;66.05;94042.47;6152653;23;20186;-83
2023/11/10 06:30:55;;;;;;;2.40;2.00;;;;;;;9.10;66.64;94051.97;6152818;23;20182;-82
2023/11/10 06:33:21;;;;;;;3.20;2.27;;;;;;;9.06;66.74;94064.41;6153455;23;20183;-82
2023/11/10 06:35:48;;;;;;;4.53;2.70;;;;;;;8.99;67.31;94073.94;6152747;23;20202;-82
2023/11/10 06:38:16;;;;;;;2.87;2.47;;;;;;;9.04;66.98;94074.13;6153453;23;20495;-82
2023/11/10 06:40:42;;;;;;;4.77;2.37;;;;;;;9.02;67.44;94095.84;6154438;23;20182;-82
2023/11/10 06:43:10;;;;;;;2.83;2.30;;;;;;;8.96;68.97;94148.78;6153450;23;20602;-83
2023/11/10 06:45:36;;;;;;;3.80;2.10;;;;;;;8.92;70.28;94191.22;6152411;23;20539;-82
2023/11/10 06:48:03;;;;;;;3.20;2.00;;;;;;;9.00;69.04;94152.53;6151879;23;20243;-82
2023/11/10 06:50:31;;;;;;;3.80;2.20;;;;;;;9.02;69.54;94176.22;6152030;23;20170;-83
2023/11/10 06:52:58;;;;;;;5.80;2.83;;;;;;;9.03;69.95;94184.72;6153746;23;20274;-83
2023/11/10 06:55:25;;;;;;;2.90;2.23;;;;;;;9.06;69.47;94169.66;6153407;23;20195;-82
2023/11/10 06:57:51;;;;;;;6.10;4.60;;;;;;;9.08;68.82;94148.94;6153374;23;20183;-83
2023/11/10 07:00:19;;;;;;;12.17;4.87;;;;;;;9.14;68.80;94143.00;6152919;23;20175;-82
2023/11/10 07:02:45;;;;;;;5.10;2.67;;;;;;;9.24;68.33;94151.03;6153589;23;20181;-83
2023/11/10 07:05:14;;;;;;;3.63;2.27;;;;;;;9.48;67.91;94137.50;6152386;23;20203;-84
2023/11/10 07:07:40;;;;;;;4.00;2.50;;;;;;;9.72;67.52;94120.59;6152705;23;20181;-83
2023/11/10 07:10:08;;;;;;;4.50;2.30;;;;;;;9.98;66.38;94099.09;6153628;23;20182;-83
2023/11/10 07:12:35;;;;;;;2.83;1.93;;;;;;;10.09;65.93;94066.75;6162169;23;20181;-84
2023/11/10 07:15:04;;;;;;;3.40;2.13;;;;;;;10.33;65.75;94055.69;6169185;23;20210;-82
2023/11/10 07:17:32;;;;;;;3.90;2.20;;;;;;;10.52;65.27;94041.06;6166481;23;20202;-84
2023/11/10 07:19:59;;;;;;;2.60;2.17;;;;;;;10.69;64.72;94026.63;6167242;23;20206;-84
2023/11/10 07:22:27;;;;;;;4.60;2.03;;;;;;;10.81;64.43;94014.59;6166993;23;20190;-83
2023/11/10 07:24:53;;;;;;;2.20;2.00;;;;;;;10.82;64.24;93999.94;6165448;23;20214;-82
2023/11/10 07:27:20;;;;;;;2.60;2.03;;;;;;;10.86;64.10;94009.59;6164035;23;20177;-84
2023/11/10 07:29:46;;;;;;;3.53;2.13;;;;;;;10.90;64.28;94005.59;6167151;23;20199;-83
2023/11/10 07:32:12;;;;;;;2.30;2.10;;;;;;;10.88;64.23;94014.53;6166223;23;20183;-84
2023/11/10 07:34:42;;;;;;;2.40;2.00;;;;;;;10.92;64.09;94018.25;6167179;23;20194;-85
2023/11/10 07:37:09;;;;;;;2.30;2.10;;;;;;;10.97;64.21;94019.13;6166338;23;20206;-84
2023/11/10 07:39:35;;;;;;;5.90;5.30;;;;;;;10.93;64.56;94020.59;6165654;23;20209;-83
2023/11/10 07:42:02;;;;;;;2.13;2.03;;;;;;;10.86;64.59;94026.81;6164943;23;20335;-83
2023/11/10 07:44:28;;;;;;;1.90;1.73;;;;;;;10.77;64.83;94041.00;6163645;23;20253;-84
2023/11/10 07:46:56;;;;;;;3.27;1.80;;;;;;;10.61;65.39;94063.72;6163173;23;20175;-84
2023/11/10 07:49:22;;;;;;;2.20;2.00;;;;;;;10.44;66.60;94097.94;6162181;23;20182;-82
2023/11/10 07:51:53;;;;;;;1.83;1.70;;;;;;;10.49;66.17;94108.38;6163732;23;20177;-84
2023/11/10 07:54:20;;;;;;;1.80;1.70;;;;;;;10.48;66.49;94112.72;6162884;23;20241;-83
2023/11/10 07:56:47;;;;;;;2.20;1.97;;;;;;;10.58;66.38;94118.19;6162494;23;20205;-83
2023/11/10 07:59:13;;;;;;;2.93;1.80;;;;;;;10.71;66.66;94125.78;6161455;23;20182;-83
2023/11/10 08:01:41;;;;;;;1.50;1.40;;;;;;;10.98;66.08;94123.72;6163003;23;20175;-83
2023/11/10 08:04:08;;;;;;;4.00;1.50;;;;;;;11.09;65.38;94091.31;6160435;23;20175;-84
2023/11/10 08:06:34;;;;;;;3.10;1.37;;;;;;;11.32;64.47;94057.16;6161390;23;20175;-84
2023/11/10 08:09:03;;;;;;;1.47;1.10;;;;;;;11.34;64.13;94032.75;6160996;23;20186;-84
2023/11/10 08:11:30;;;;;;;1.87;1.13;;;;;;;11.32;63.87;94021.09;6160160;23;20181;-84
2023/11/10 08:13:56;;;;;;;1.07;1.03;;;;;;;11.19;64.51;94049.59;6158786;23;20201;-84
2023/11/10 08:16:23;;;;;;;1.53;1.20;;;;;;;10.85;65.02;94062.06;6157662;23;20214;-83
2023/11/10 08:18:49;;;;;;;1.20;1.10;;;;;;;10.87;65.37;94080.66;6160099;23;20183;-84
2023/11/10 08:21:17;;;;;;;1.00;1.00;;;;;;;11.00;65.44;94090.03;6161917;23;20190;-84
2023/11/10 08:23:43;;;;;;;1.00;1.00;;;;;;;11.08;64.93;94076.88;6160609;23;20237;-84
2023/11/10 08:26:12;;;;;;;1.33;1.07;;;;;;;11.05;65.20;94088.38;6160007;23;20726;-82
2023/11/10 08:28:39;;;;;;;2.67;0.90;;;;;;;10.95;65.24;94088.13;6160559;23;20705;-84
2023/11/10 08:31:05;;;;;;;1.33;0.90;;;;;;;10.83;65.82;94105.25;6160788;23;20174;-83
2023/11/10 08:33:32;;;;;;;1.00;1.00;;;;;;;10.66;66.37;94128.22;6151761;23;20183;-83
2023/11/10 08:35:58;;;;;;;1.10;1.00;;;;;;;10.56;66.73;94158.00;6154417;23;20191;-84
2023/11/10 08:38:25;;;;;;;1.33;1.13;;;;;;;10.49;67.17;94162.41;6163048;23;20194;-84
2023/11/10 08:40:51;;;;;;;1.00;0.90;;;;;;;10.41;67.50;94184.03;6159834;23;20673;-83
2023/11/10 08:43:19;;;;;;;1.77;1.57;;;;;;;10.38;68.50;94205.06;6159533;23;20672;-84
2023/11/10 08:45:46;;;;;;;3.10;2.80;;;;;;;10.52;68.15;94224.53;6158334;23;20195;-83
2023/11/10 08:48:12;;;;;;;1.07;1.00;;;;;;;10.47;68.42;94232.09;6157767;23;20254;-83
2023/11/10 08:50:39;;;;;;;0.80;0.80;;;;;;;10.39;69.06;94245.22;6158120;23;20190;-83
2023/11/10 08:53:06;;;;;;;0.80;0.80;;;;;;;10.38;69.48;94265.03;6158925;23;20186;-83
2023/11/10 08:55:33;;;;;;;0.77;0.77;;;;;;;10.28;70.11;94272.38;6157846;23;20207;-83
2023/11/10 08:57:59;;;;;;;0.80;0.80;;;;;;;10.15;70.95;94281.94;6157987;23;20198;-82
2023/11/10 09:00:27;;;;;;;0.77;0.77;;;;;;;10.13;71.79;94313.00;6156560;23;20179;-83
2023/11/10 09:02:55;;;;;;;0.83;0.80;;;;;;;10.16;72.24;94327.22;6155843;23;20183;-83
2023/11/10 09:05:22;;;;;;;1.30;0.70;;;;;;;10.13;73.25;94337.91;6156221;23;20245;-83
2023/11/10 09:07:49;;;;;;;1.17;0.70;;;;;;;10.08;73.80;94351.38;6156354;23;20175;-82
2023/11/10 09:10:18;;;;;;;0.70;0.70;;;;;;;9.97;74.49;94364.88;6157963;23;20190;-82
2023/11/10 09:12:48;;;;;;;0.60;0.60;;;;;;;9.96;74.84;94381.28;6158432;23;20175;-84
2023/11/10 09:15:15;;;;;;;0.60;0.60;;;;;;;9.83;75.57;94384.66;6153633;23;20201;-82
2023/11/10 09:17:44;;;;;;;1.10;0.70;;;;;;;9.74;75.42;94388.47;6152604;23;20201;-82
2023/11/10 09:20:13;;;;;;;1.37;1.27;;;;;;;9.73;75.70;94394.59;6155641;23;20175;-82
2023/11/10 09:22:39;;;;;;;1.70;1.43;;;;;;;9.82;75.83;94395.16;6154866;23;20788;-83
2023/11/10 09:25:09;;;;;;;0.80;0.80;;;;;;;9.85;75.59;94394.75;6149668;23;20694;-83
2023/11/10 09:27:35;;;;;;;0.80;0.70;;;;;;;9.86;76.38;94415.13;6154568;23;20171;-82
2023/11/10 09:30:02;;;;;;;0.67;0.67;;;;;;;9.82;77.09;94426.00;6155648;23;20171;-82
2023/11/10 09:32:29;;;;;;;0.80;0.80;;;;;;;9.83;77.08;94418.09;6154705;23;20180;-82
2023/11/10 09:34:56;;;;;;;0.60;0.60;;;;;;;9.70;77.54;94430.97;6152069;23;20199;-82
2023/11/10 09:37:23;;;;;;;0.60;0.60;;;;;;;9.70;77.62;94436.09;6153010;23;20282;-82
2023/11/10 09:39:50;;;;;;;0.97;0.60;;;;;;;9.74;78.43;94444.22;6153175;23;20181;-83
2023/11/10 09:42:17;;;;;;;1.13;0.70;;;;;;;9.75;79.86;94479.22;6151402;23;20281;-83
2023/11/10 09:44:52;;;;;;;0.73;0.60;;;;;;;9.73;79.72;94468.34;6151288;23;20265;-83
2023/11/10 09:47:20;;;;;;;1.17;0.50;;;;;;;9.72;79.38;94459.84;6151051;23;20808;-82
2023/11/10 09:49:47;;;;;;;0.80;0.80;;;;;;;9.72;78.95;94444.41;6151091;23;20261;-82
2023/11/10 09:52:16;;;;;;;0.67;0.67;;;;;;;9.70;79.30;94446.38;6149996;23;20207;-83
2023/11/10 09:54:45;;;;;;;0.67;0.67;;;;;;;9.64;79.83;94467.72;6153031;23;20612;-82
2023/11/10 09:57:12;;;;;;;2.87;0.80;;;;;;;9.51;79.66;94452.31;6152005;23;20246;-82
2023/11/10 09:59:41;;;;;;;0.47;0.47;;;;;;;9.45;79.58;94453.09;6152381;23;20198;-82
2023/11/10 10:02:11;;;;;;;0.50;0.50;;;;;;;9.46;79.42;94441.84;6152184;23;20179;-82
2023/11/10 10:04:38;;;;;;;0.83;0.70;;;;;;;9.63;79.05;94450.72;6152592;23;20241;-82
2023/11/10 10:07:09;;;;;;;0.70;0.70;;;;;;;9.75;78.47;94433.72;6151703;23;20650;-83
2023/11/10 10:09:37;;;;;;;0.50;0.50;;;;;;;9.88;78.14;94423.44;6153398;23;20620;-82
2023/11/10 10:12:04;;;;;;;0.57;0.57;;;;;;;9.92;78.03;94411.75;6152940;23;20179;-83
2023/11/10 10:14:30;;;;;;;0.90;0.90;;;;;;;10.00;77.67;94408.97;6151774;23;20199;-82
2023/11/10 10:16:57;;;;;;;0.50;0.50;;;;;;;10.11;76.60;94379.28;6152164;23;20199;-82
2023/11/10 10:19:25;;;;;;;0.50;0.50;;;;;;;10.23;76.03;94358.88;6152285;23;20198;-82
2023/11/10 10:21:52;;;;;;;0.50;0.50;;;;;;;10.38;75.46;94343.97;6152009;23;20181;-82
2023/11/10 10:24:19;;;;;;;0.50;0.50;;;;;;;10.49;74.18;94301.38;6147357;23;20656;-83
2023/11/10 10:26:48;;;;;;;0.50;0.50;;;;;;;10.68;72.64;94249.75;6150955;23;20182;-82
2023/11/10 10:29:14;;;;;;;0.60;0.60;;;;;;;10.85;71.95;94221.69;6152239;23;20184;-82
2023/11/10 10:31:41;;;;;;;0.70;0.60;;;;;;;11.07;71.98;94209.22;6152543;23;20170;-82
2023/11/10 10:34:07;;;;;;;0.50;0.50;;;;;;;11.36;70.31;94162.13;6153479;23;20219;-83
2023/11/10 10:36:35;;;;;;;0.57;0.57;;;;;;;11.59;68.27;94085.94;6157662;23;20179;-86
2023/11/10 10:39:04;;;;;;;0.80;0.50;;;;;;;11.68;65.86;94000.34;6155601;23;20205;-84
2023/11/10 10:41:34;;;;;;;0.50;0.50;;;;;;;11.69;65.40;93960.66;6150182;23;20513;-84
2023/11/10 10:44:02;;;;;;;0.50;0.50;;;;;;;11.50;64.19;93892.19;6147983;23;20242;-85
2023/11/10 10:46:29;;;;;;;0.40;0.40;;;;;;;11.33;64.69;93899.00;6147662;23;20226;-82
2023/11/10 10:48:58;;;;;;;1.00;0.70;;;;;;;11.02;64.85;93910.34;6148826;23;20514;-82
2023/11/10 10:51:27;;;;;;;0.83;0.83;;;;;;;10.97;66.60;93967.63;6148857;23;20171;-82
2023/11/10 10:53:55;;;;;;;0.40;0.40;;;;;;;10.92;64.47;93876.63;6152857;23;20534;-82
2023/11/10 10:56:21;;;;;;;0.30;0.30;;;;;;;10.94;65.27;93908.88;6154163;23;20217;-82
2023/11/10 10:58:47;;;;;;;0.47;0.47;;;;;;;11.04;65.87;93960.63;6153122;23;20195;-82
2023/11/10 11:01:17;;;;;;;0.40;0.40;;;;;;;11.07;66.92;94005.75;6153314;23;20179;-81
2023/11/10 11:03:54;;;;;;;0.50;0.50;;;;;;;10.89;66.09;93969.75;6151470;23;20222;-82
2023/11/10 11:06:34;;;;;;;0.60;0.43;;;;;;;10.99;65.96;93950.19;6149283;23;20273;-81
2023/11/10 11:09:19;;;;;;;0.40;0.40;;;;;;;11.10;65.66;93951.25;6149390;23;20602;-82
2023/11/10 11:12:23;;;;;;;0.53;0.53;;;;;;;11.24;65.76;93957.78;6149334;23;20159;-82
2023/11/10 11:14:57;;;;;;;0.43;0.43;;;;;;;11.16;65.38;93936.72;6151798;23;20195;-82
2023/11/10 11:17:46;;;;;;;0.40;0.40;;;;;;;11.06;65.93;93963.78;6151355;23;20185;-82
2023/11/10 11:20:16;;;;;;;1.27;0.70;;;;;;;11.36;74.49;94267.78;6151913;23;20250;-80
2023/11/10 11:22:43;;;;;;;2.93;0.73;;;;;;;11.38;69.06;94090.56;6152638;23;20178;-81
2023/11/10 11:25:12;;;;;;;0.70;0.60;;;;;;;11.25;69.19;94088.16;6150551;23;20199;-82
2023/11/10 11:27:39;;;;;;;0.70;0.70;;;;;;;11.19;68.18;94047.00;6151063;23;20175;-82
2023/11/10 11:30:07;;;;;;;0.90;0.80;;;;;;;11.02;68.31;94039.88;6153695;23;20179;-82
2023/11/10 11:32:40;;;;;;;0.40;0.40;;;;;;;10.80;67.89;94030.25;6151326;23;20475;-82
2023/11/10 11:35:12;;;;;;;10.30;6.70;;;;;;;10.70;69.29;94071.94;6150118;23;20202;-82
2023/11/10 11:37:39;;;;;;;1.13;0.77;;;;;;;10.66;69.00;94071.59;6149893;23;20183;-81
2023/11/10 11:40:09;;;;;;;0.73;0.60;;;;;;;10.49;68.59;94073.16;6147376;23;20245;-82